sensor_id;sensor_type;location;lat;lon;timestamp;temperature;humidity
8463;DHT22;4268;52.506;13.462;2023-07-31T00:02:03;16.70;99.90
8463;DHT22;4268;52.506;13.462;2023-07-31T00:04:29;16.70;99.90
8463;DHT22;4268;52.506;13.462;2023-07-31T00:06:54;16.60;99.90
8463;DHT22;4268;52.506;13.462;2023-07-31T00:09:20;16.50;99.90
8463;DHT22;4268;52.506;13.462;2023-07-31T00:11:45;16.40;99.90
8463;DHT22;4268;52.506;13.462;2023-07-31T00:14:11;16.40;99.90
8463;DHT22;4268;52.506;13.462;2023-07-31T00:16:36;16.90;99.90
8463;DHT22;4268;52.506;13.462;2023-07-31T00:19:02;16.40;99.90
8463;DHT22;4268;52.506;13.462;2023-07-31T00:21:28;16.30;99.90
8463;DHT22;4268;52.506;13.462;2023-07-31T00:23:53;16.30;99.90
8463;DHT22;4268;52.506;13.462;2023-07-31T00:26:19;16.30;99.90
8463;DHT22;4268;52.506;13.462;2023-07-31T00:28:44;16.30;99.90
8463;DHT22;4268;52.506;13.462;2023-07-31T00:31:10;16.30;99.90
8463;DHT22;4268;52.506;13.462;2023-07-31T00:33:36;16.30;99.90
8463;DHT22;4268;52.506;13.462;2023-07-31T00:36:02;16.40;99.90
8463;DHT22;4268;52.506;13.462;2023-07-31T00:38:27;16.40;99.90
8463;DHT22;4268;52.506;13.462;2023-07-31T00:40:53;16.50;99.90
8463;DHT22;4268;52.506;13.462;2023-07-31T00:43:18;16.40;99.90
8463;DHT22;4268;52.506;13.462;2023-07-31T00:45:44;16.40;99.90
8463;DHT22;4268;52.506;13.462;2023-07-31T00:48:10;16.40;99.90
8463;DHT22;4268;52.506;13.462;2023-07-31T00:50:36;16.30;99.90
8463;DHT22;4268;52.506;13.462;2023-07-31T00:53:03;16.30;99.90
8463;DHT22;4268;52.506;13.462;2023-07-31T00:55:29;16.20;99.90
8463;DHT22;4268;52.506;13.462;2023-07-31T00:57:56;16.20;99.90
8463;DHT22;4268;52.506;13.462;2023-07-31T01:00:21;16.20;99.90
8463;DHT22;4268;52.506;13.462;2023-07-31T01:02:49;16.20;99.90
8463;DHT22;4268;52.506;13.462;2023-07-31T01:05:16;16.20;99.90
8463;DHT22;4268;52.506;13.462;2023-07-31T01:07:51;16.20;99.90
8463;DHT22;4268;52.506;13.462;2023-07-31T01:10:21;16.20;99.90
8463;DHT22;4268;52.506;13.462;2023-07-31T01:12:48;16.40;99.90
8463;DHT22;4268;52.506;13.462;2023-07-31T01:15:13;16.40;99.90
8463;DHT22;4268;52.506;13.462;2023-07-31T01:17:42;16.40;99.90
8463;DHT22;4268;52.506;13.462;2023-07-31T01:20:20;16.50;99.90
8463;DHT22;4268;52.506;13.462;2023-07-31T01:23:23;16.50;99.90
8463;DHT22;4268;52.506;13.462;2023-07-31T01:26:03;16.50;99.90
8463;DHT22;4268;52.506;13.462;2023-07-31T01:28:44;16.50;99.90
8463;DHT22;4268;52.506;13.462;2023-07-31T01:31:16;16.50;99.90
8463;DHT22;4268;52.506;13.462;2023-07-31T01:33:43;16.40;99.90
8463;DHT22;4268;52.506;13.462;2023-07-31T01:36:09;16.40;99.90
8463;DHT22;4268;52.506;13.462;2023-07-31T01:38:35;16.50;99.90
8463;DHT22;4268;52.506;13.462;2023-07-31T01:41:01;16.50;99.90
8463;DHT22;4268;52.506;13.462;2023-07-31T01:43:26;16.50;99.90
8463;DHT22;4268;52.506;13.462;2023-07-31T01:45:52;16.50;99.90
8463;DHT22;4268;52.506;13.462;2023-07-31T01:48:18;16.50;99.90
8463;DHT22;4268;52.506;13.462;2023-07-31T01:50:43;16.50;99.90
8463;DHT22;4268;52.506;13.462;2023-07-31T01:53:09;16.40;99.90
8463;DHT22;4268;52.506;13.462;2023-07-31T01:55:34;16.40;99.90
8463;DHT22;4268;52.506;13.462;2023-07-31T01:58:00;16.40;99.90
8463;DHT22;4268;52.506;13.462;2023-07-31T02:00:25;16.40;99.90
8463;DHT22;4268;52.506;13.462;2023-07-31T02:02:51;16.40;99.90
8463;DHT22;4268;52.506;13.462;2023-07-31T02:05:17;16.40;99.90
8463;DHT22;4268;52.506;13.462;2023-07-31T02:07:43;16.30;99.90
8463;DHT22;4268;52.506;13.462;2023-07-31T02:10:08;16.40;99.90
8463;DHT22;4268;52.506;13.462;2023-07-31T02:12:34;16.40;99.90
8463;DHT22;4268;52.506;13.462;2023-07-31T02:15:00;16.40;99.90
8463;DHT22;4268;52.506;13.462;2023-07-31T02:17:25;16.40;99.90
8463;DHT22;4268;52.506;13.462;2023-07-31T02:19:51;16.50;99.90
8463;DHT22;4268;52.506;13.462;2023-07-31T02:22:16;16.50;99.90
8463;DHT22;4268;52.506;13.462;2023-07-31T02:24:42;16.50;99.90
8463;DHT22;4268;52.506;13.462;2023-07-31T02:27:08;16.60;99.90
8463;DHT22;4268;52.506;13.462;2023-07-31T02:29:33;16.40;99.90
8463;DHT22;4268;52.506;13.462;2023-07-31T02:31:59;16.40;99.90
8463;DHT22;4268;52.506;13.462;2023-07-31T02:34:24;18.20;99.90
8463;DHT22;4268;52.506;13.462;2023-07-31T02:36:50;16.40;99.90
8463;DHT22;4268;52.506;13.462;2023-07-31T02:39:15;16.60;99.90
8463;DHT22;4268;52.506;13.462;2023-07-31T02:41:41;16.30;99.90
8463;DHT22;4268;52.506;13.462;2023-07-31T02:44:06;16.40;99.90
8463;DHT22;4268;52.506;13.462;2023-07-31T02:46:32;16.40;99.90
8463;DHT22;4268;52.506;13.462;2023-07-31T02:48:58;16.40;99.90
8463;DHT22;4268;52.506;13.462;2023-07-31T02:51:23;16.30;99.90
8463;DHT22;4268;52.506;13.462;2023-07-31T02:53:49;16.30;99.90
8463;DHT22;4268;52.506;13.462;2023-07-31T02:56:15;16.30;99.90
8463;DHT22;4268;52.506;13.462;2023-07-31T02:58:40;16.50;99.90
8463;DHT22;4268;52.506;13.462;2023-07-31T03:01:06;16.20;99.90
8463;DHT22;4268;52.506;13.462;2023-07-31T03:03:31;16.20;99.90
8463;DHT22;4268;52.506;13.462;2023-07-31T03:05:57;16.30;99.90
8463;DHT22;4268;52.506;13.462;2023-07-31T03:08:23;16.40;99.90
8463;DHT22;4268;52.506;13.462;2023-07-31T03:10:48;16.30;99.90
8463;DHT22;4268;52.506;13.462;2023-07-31T03:13:14;16.30;99.90
8463;DHT22;4268;52.506;13.462;2023-07-31T03:15:42;16.30;99.90
8463;DHT22;4268;52.506;13.462;2023-07-31T03:18:08;16.30;99.90
8463;DHT22;4268;52.506;13.462;2023-07-31T03:20:33;16.30;99.90
8463;DHT22;4268;52.506;13.462;2023-07-31T03:22:59;16.40;99.90
8463;DHT22;4268;52.506;13.462;2023-07-31T03:25:24;16.30;99.90
8463;DHT22;4268;52.506;13.462;2023-07-31T03:27:50;16.40;99.90
8463;DHT22;4268;52.506;13.462;2023-07-31T03:30:16;16.40;99.90
8463;DHT22;4268;52.506;13.462;2023-07-31T03:32:41;16.50;99.90
8463;DHT22;4268;52.506;13.462;2023-07-31T03:35:07;16.40;99.90
8463;DHT22;4268;52.506;13.462;2023-07-31T03:37:33;16.40;99.90
8463;DHT22;4268;52.506;13.462;2023-07-31T03:39:58;16.40;99.90
8463;DHT22;4268;52.506;13.462;2023-07-31T03:42:24;16.40;99.90
8463;DHT22;4268;52.506;13.462;2023-07-31T03:44:49;16.40;99.90
8463;DHT22;4268;52.506;13.462;2023-07-31T03:47:15;16.40;99.90
8463;DHT22;4268;52.506;13.462;2023-07-31T03:49:41;16.70;99.90
8463;DHT22;4268;52.506;13.462;2023-07-31T03:52:06;16.50;99.90
8463;DHT22;4268;52.506;13.462;2023-07-31T03:54:32;16.40;99.90
8463;DHT22;4268;52.506;13.462;2023-07-31T03:56:58;16.40;99.90
8463;DHT22;4268;52.506;13.462;2023-07-31T03:59:23;16.40;99.90
8463;DHT22;4268;52.506;13.462;2023-07-31T04:01:49;16.50;99.90
8463;DHT22;4268;52.506;13.462;2023-07-31T04:04:14;16.50;99.90
8463;DHT22;4268;52.506;13.462;2023-07-31T04:06:40;16.60;99.90
8463;DHT22;4268;52.506;13.462;2023-07-31T04:09:06;16.50;99.90
8463;DHT22;4268;52.506;13.462;2023-07-31T04:11:32;16.50;99.90
8463;DHT22;4268;52.506;13.462;2023-07-31T04:13:57;16.50;99.90
8463;DHT22;4268;52.506;13.462;2023-07-31T04:16:23;16.50;99.90
8463;DHT22;4268;52.506;13.462;2023-07-31T04:18:49;16.50;99.90
8463;DHT22;4268;52.506;13.462;2023-07-31T04:21:14;16.50;99.90
8463;DHT22;4268;52.506;13.462;2023-07-31T04:23:40;16.50;99.90
8463;DHT22;4268;52.506;13.462;2023-07-31T04:26:05;16.60;99.90
8463;DHT22;4268;52.506;13.462;2023-07-31T04:28:31;17.40;99.90
8463;DHT22;4268;52.506;13.462;2023-07-31T04:30:57;16.60;99.90
8463;DHT22;4268;52.506;13.462;2023-07-31T04:33:22;16.70;99.90
8463;DHT22;4268;52.506;13.462;2023-07-31T04:35:52;16.70;99.90
8463;DHT22;4268;52.506;13.462;2023-07-31T04:38:19;16.80;99.90
8463;DHT22;4268;52.506;13.462;2023-07-31T04:40:45;16.80;99.90
8463;DHT22;4268;52.506;13.462;2023-07-31T04:43:10;16.80;99.90
8463;DHT22;4268;52.506;13.462;2023-07-31T04:45:36;16.80;99.90
8463;DHT22;4268;52.506;13.462;2023-07-31T04:48:01;16.80;99.90
8463;DHT22;4268;52.506;13.462;2023-07-31T04:50:27;16.80;99.90
8463;DHT22;4268;52.506;13.462;2023-07-31T04:52:53;16.80;99.90
8463;DHT22;4268;52.506;13.462;2023-07-31T04:55:18;16.80;99.90
8463;DHT22;4268;52.506;13.462;2023-07-31T04:57:44;16.80;99.90
8463;DHT22;4268;52.506;13.462;2023-07-31T05:00:10;16.80;99.90
8463;DHT22;4268;52.506;13.462;2023-07-31T05:02:35;16.80;99.90
8463;DHT22;4268;52.506;13.462;2023-07-31T05:05:01;16.90;99.90
8463;DHT22;4268;52.506;13.462;2023-07-31T05:07:27;16.90;99.90
8463;DHT22;4268;52.506;13.462;2023-07-31T05:09:52;16.90;99.90
8463;DHT22;4268;52.506;13.462;2023-07-31T05:12:18;16.90;99.90
8463;DHT22;4268;52.506;13.462;2023-07-31T05:14:43;17.00;99.90
8463;DHT22;4268;52.506;13.462;2023-07-31T05:17:09;17.00;99.90
8463;DHT22;4268;52.506;13.462;2023-07-31T05:19:35;17.20;99.90
8463;DHT22;4268;52.506;13.462;2023-07-31T05:22:00;17.30;99.90
8463;DHT22;4268;52.506;13.462;2023-07-31T05:24:26;17.30;99.90
8463;DHT22;4268;52.506;13.462;2023-07-31T05:26:51;17.30;99.90
8463;DHT22;4268;52.506;13.462;2023-07-31T05:29:17;17.30;99.90
8463;DHT22;4268;52.506;13.462;2023-07-31T05:31:43;17.40;99.90
8463;DHT22;4268;52.506;13.462;2023-07-31T05:34:08;17.40;99.90
8463;DHT22;4268;52.506;13.462;2023-07-31T05:36:34;17.40;99.90
8463;DHT22;4268;52.506;13.462;2023-07-31T05:39:00;17.40;99.90
8463;DHT22;4268;52.506;13.462;2023-07-31T05:41:31;17.40;99.90
8463;DHT22;4268;52.506;13.462;2023-07-31T05:43:56;17.30;99.90
8463;DHT22;4268;52.506;13.462;2023-07-31T05:46:22;17.30;99.90
8463;DHT22;4268;52.506;13.462;2023-07-31T05:48:47;17.30;99.90
8463;DHT22;4268;52.506;13.462;2023-07-31T05:51:13;17.30;99.90
8463;DHT22;4268;52.506;13.462;2023-07-31T05:53:38;17.30;99.90
8463;DHT22;4268;52.506;13.462;2023-07-31T05:56:06;17.30;99.90
8463;DHT22;4268;52.506;13.462;2023-07-31T05:58:31;17.30;99.90
8463;DHT22;4268;52.506;13.462;2023-07-31T06:00:57;17.40;99.90
8463;DHT22;4268;52.506;13.462;2023-07-31T06:03:22;17.40;99.90
8463;DHT22;4268;52.506;13.462;2023-07-31T06:05:48;17.40;99.90
8463;DHT22;4268;52.506;13.462;2023-07-31T06:08:13;17.40;99.90
8463;DHT22;4268;52.506;13.462;2023-07-31T06:10:39;17.40;99.90
8463;DHT22;4268;52.506;13.462;2023-07-31T06:13:04;17.40;99.90
8463;DHT22;4268;52.506;13.462;2023-07-31T06:15:29;17.40;99.90
8463;DHT22;4268;52.506;13.462;2023-07-31T06:17:55;17.40;99.90
8463;DHT22;4268;52.506;13.462;2023-07-31T06:20:21;17.40;99.90
8463;DHT22;4268;52.506;13.462;2023-07-31T06:22:46;17.40;99.90
8463;DHT22;4268;52.506;13.462;2023-07-31T06:25:12;17.50;99.90
8463;DHT22;4268;52.506;13.462;2023-07-31T06:27:37;17.50;99.90
8463;DHT22;4268;52.506;13.462;2023-07-31T06:30:03;17.60;99.90
8463;DHT22;4268;52.506;13.462;2023-07-31T06:32:29;17.70;99.90
8463;DHT22;4268;52.506;13.462;2023-07-31T06:34:55;17.70;99.90
8463;DHT22;4268;52.506;13.462;2023-07-31T06:37:20;17.70;99.90
8463;DHT22;4268;52.506;13.462;2023-07-31T06:39:46;17.80;99.90
8463;DHT22;4268;52.506;13.462;2023-07-31T06:42:11;17.80;99.90
8463;DHT22;4268;52.506;13.462;2023-07-31T06:44:37;17.90;99.90
8463;DHT22;4268;52.506;13.462;2023-07-31T06:47:02;18.00;99.90
8463;DHT22;4268;52.506;13.462;2023-07-31T06:49:28;18.10;99.90
8463;DHT22;4268;52.506;13.462;2023-07-31T06:51:53;18.20;99.90
8463;DHT22;4268;52.506;13.462;2023-07-31T06:54:19;18.30;99.90
8463;DHT22;4268;52.506;13.462;2023-07-31T06:56:44;18.40;99.90
8463;DHT22;4268;52.506;13.462;2023-07-31T06:59:10;18.40;99.90
8463;DHT22;4268;52.506;13.462;2023-07-31T07:01:35;18.40;99.90
8463;DHT22;4268;52.506;13.462;2023-07-31T07:04:01;18.50;99.90
8463;DHT22;4268;52.506;13.462;2023-07-31T07:06:26;18.50;99.90
8463;DHT22;4268;52.506;13.462;2023-07-31T07:08:52;18.50;99.90
8463;DHT22;4268;52.506;13.462;2023-07-31T07:11:17;18.50;99.90
8463;DHT22;4268;52.506;13.462;2023-07-31T07:13:43;18.50;99.90
8463;DHT22;4268;52.506;13.462;2023-07-31T07:16:09;18.40;99.90
8463;DHT22;4268;52.506;13.462;2023-07-31T07:18:35;18.40;99.90
8463;DHT22;4268;52.506;13.462;2023-07-31T07:21:01;18.60;99.90
8463;DHT22;4268;52.506;13.462;2023-07-31T07:23:27;18.30;99.90
8463;DHT22;4268;52.506;13.462;2023-07-31T07:25:53;18.20;99.90
8463;DHT22;4268;52.506;13.462;2023-07-31T07:28:18;18.10;99.90
8463;DHT22;4268;52.506;13.462;2023-07-31T07:30:44;18.20;99.90
8463;DHT22;4268;52.506;13.462;2023-07-31T07:33:09;18.40;99.90
8463;DHT22;4268;52.506;13.462;2023-07-31T07:35:35;18.70;99.90
8463;DHT22;4268;52.506;13.462;2023-07-31T07:38:04;18.90;99.90
8463;DHT22;4268;52.506;13.462;2023-07-31T07:40:30;19.00;99.90
8463;DHT22;4268;52.506;13.462;2023-07-31T07:42:55;19.00;99.90
8463;DHT22;4268;52.506;13.462;2023-07-31T07:45:21;19.10;99.90
8463;DHT22;4268;52.506;13.462;2023-07-31T07:47:46;19.20;99.90
8463;DHT22;4268;52.506;13.462;2023-07-31T07:50:11;19.20;99.90
8463;DHT22;4268;52.506;13.462;2023-07-31T07:52:37;19.30;99.90
8463;DHT22;4268;52.506;13.462;2023-07-31T07:55:03;19.70;99.90
8463;DHT22;4268;52.506;13.462;2023-07-31T07:57:29;19.50;99.90
8463;DHT22;4268;52.506;13.462;2023-07-31T07:59:54;19.50;99.90
8463;DHT22;4268;52.506;13.462;2023-07-31T08:02:20;19.40;99.90
8463;DHT22;4268;52.506;13.462;2023-07-31T08:04:45;19.20;99.90
8463;DHT22;4268;52.506;13.462;2023-07-31T08:07:11;19.10;99.90
8463;DHT22;4268;52.506;13.462;2023-07-31T08:09:37;19.10;99.90
8463;DHT22;4268;52.506;13.462;2023-07-31T08:12:03;19.10;99.90
8463;DHT22;4268;52.506;13.462;2023-07-31T08:14:29;19.20;99.90
8463;DHT22;4268;52.506;13.462;2023-07-31T08:16:55;19.30;99.90
8463;DHT22;4268;52.506;13.462;2023-07-31T08:19:21;19.10;99.90
8463;DHT22;4268;52.506;13.462;2023-07-31T08:21:46;19.10;99.90
8463;DHT22;4268;52.506;13.462;2023-07-31T08:24:12;19.00;99.90
8463;DHT22;4268;52.506;13.462;2023-07-31T08:26:37;18.90;99.90
8463;DHT22;4268;52.506;13.462;2023-07-31T08:29:03;18.90;99.90
8463;DHT22;4268;52.506;13.462;2023-07-31T08:31:29;19.00;99.90
8463;DHT22;4268;52.506;13.462;2023-07-31T08:33:55;19.20;99.90
8463;DHT22;4268;52.506;13.462;2023-07-31T08:36:21;19.30;99.90
8463;DHT22;4268;52.506;13.462;2023-07-31T08:38:47;19.40;99.90
8463;DHT22;4268;52.506;13.462;2023-07-31T08:41:12;19.60;99.90
8463;DHT22;4268;52.506;13.462;2023-07-31T08:43:39;19.40;99.90
8463;DHT22;4268;52.506;13.462;2023-07-31T08:46:05;19.40;99.90
8463;DHT22;4268;52.506;13.462;2023-07-31T08:48:31;19.40;99.90
8463;DHT22;4268;52.506;13.462;2023-07-31T08:50:57;19.30;99.90
8463;DHT22;4268;52.506;13.462;2023-07-31T08:53:22;19.30;99.90
8463;DHT22;4268;52.506;13.462;2023-07-31T08:55:48;19.30;99.90
8463;DHT22;4268;52.506;13.462;2023-07-31T08:58:15;19.30;99.90
8463;DHT22;4268;52.506;13.462;2023-07-31T09:00:41;19.30;99.90
8463;DHT22;4268;52.506;13.462;2023-07-31T09:03:13;19.60;99.90
8463;DHT22;4268;52.506;13.462;2023-07-31T09:05:42;19.70;99.90
8463;DHT22;4268;52.506;13.462;2023-07-31T09:08:10;19.80;99.90
8463;DHT22;4268;52.506;13.462;2023-07-31T09:10:43;19.90;99.90
8463;DHT22;4268;52.506;13.462;2023-07-31T09:13:11;19.90;99.90
8463;DHT22;4268;52.506;13.462;2023-07-31T09:15:36;20.00;99.90
8463;DHT22;4268;52.506;13.462;2023-07-31T09:18:04;20.30;99.90
8463;DHT22;4268;52.506;13.462;2023-07-31T09:20:30;20.40;99.90
8463;DHT22;4268;52.506;13.462;2023-07-31T09:23:05;20.20;99.90
8463;DHT22;4268;52.506;13.462;2023-07-31T09:25:31;20.00;99.90
8463;DHT22;4268;52.506;13.462;2023-07-31T09:28:00;20.00;99.90
8463;DHT22;4268;52.506;13.462;2023-07-31T09:30:26;19.90;99.90
8463;DHT22;4268;52.506;13.462;2023-07-31T09:33:00;19.80;99.90
8463;DHT22;4268;52.506;13.462;2023-07-31T09:35:33;19.80;99.90
8463;DHT22;4268;52.506;13.462;2023-07-31T09:38:03;19.60;99.90
8463;DHT22;4268;52.506;13.462;2023-07-31T09:40:46;19.50;99.90
8463;DHT22;4268;52.506;13.462;2023-07-31T09:43:13;19.20;99.90
8463;DHT22;4268;52.506;13.462;2023-07-31T09:45:41;19.10;99.90
8463;DHT22;4268;52.506;13.462;2023-07-31T09:48:15;19.00;99.90
8463;DHT22;4268;52.506;13.462;2023-07-31T09:50:45;19.00;99.90
8463;DHT22;4268;52.506;13.462;2023-07-31T09:53:12;19.00;99.90
8463;DHT22;4268;52.506;13.462;2023-07-31T09:55:38;19.00;99.90
8463;DHT22;4268;52.506;13.462;2023-07-31T09:58:06;19.10;99.90
8463;DHT22;4268;52.506;13.462;2023-07-31T10:00:32;19.10;99.90
8463;DHT22;4268;52.506;13.462;2023-07-31T10:03:02;19.10;99.90
8463;DHT22;4268;52.506;13.462;2023-07-31T10:05:36;19.30;99.90
8463;DHT22;4268;52.506;13.462;2023-07-31T10:10:37;19.50;99.90
8463;DHT22;4268;52.506;13.462;2023-07-31T10:13:06;19.60;99.90
8463;DHT22;4268;52.506;13.462;2023-07-31T10:15:32;19.80;99.90
8463;DHT22;4268;52.506;13.462;2023-07-31T10:17:59;20.00;99.90
8463;DHT22;4268;52.506;13.462;2023-07-31T10:20:26;20.20;99.90
8463;DHT22;4268;52.506;13.462;2023-07-31T10:22:54;20.10;99.90
8463;DHT22;4268;52.506;13.462;2023-07-31T10:25:21;19.90;99.90
8463;DHT22;4268;52.506;13.462;2023-07-31T10:27:47;20.00;99.90
8463;DHT22;4268;52.506;13.462;2023-07-31T10:30:16;19.90;99.90
8463;DHT22;4268;52.506;13.462;2023-07-31T10:32:44;19.70;99.90
8463;DHT22;4268;52.506;13.462;2023-07-31T10:35:11;19.70;99.90
8463;DHT22;4268;52.506;13.462;2023-07-31T10:37:39;19.70;99.90
8463;DHT22;4268;52.506;13.462;2023-07-31T10:40:13;19.80;99.90
8463;DHT22;4268;52.506;13.462;2023-07-31T10:42:48;20.10;99.90
8463;DHT22;4268;52.506;13.462;2023-07-31T10:47:58;20.70;99.90
8463;DHT22;4268;52.506;13.462;2023-07-31T10:50:26;20.90;99.90
8463;DHT22;4268;52.506;13.462;2023-07-31T10:52:53;21.20;99.90
8463;DHT22;4268;52.506;13.462;2023-07-31T10:55:28;21.60;99.90
8463;DHT22;4268;52.506;13.462;2023-07-31T10:57:57;22.10;99.90
8463;DHT22;4268;52.506;13.462;2023-07-31T11:00:27;22.30;99.90
8463;DHT22;4268;52.506;13.462;2023-07-31T11:02:57;22.20;99.90
8463;DHT22;4268;52.506;13.462;2023-07-31T11:05:45;22.30;99.90
8463;DHT22;4268;52.506;13.462;2023-07-31T11:08:25;22.20;99.90
8463;DHT22;4268;52.506;13.462;2023-07-31T11:11:05;22.30;99.90
8463;DHT22;4268;52.506;13.462;2023-07-31T11:15:58;22.20;99.90
8463;DHT22;4268;52.506;13.462;2023-07-31T11:18:24;22.10;99.90
8463;DHT22;4268;52.506;13.462;2023-07-31T11:20:49;21.90;99.90
8463;DHT22;4268;52.506;13.462;2023-07-31T11:23:16;21.70;99.90
8463;DHT22;4268;52.506;13.462;2023-07-31T11:25:42;21.60;99.90
8463;DHT22;4268;52.506;13.462;2023-07-31T11:28:15;22.40;99.90
8463;DHT22;4268;52.506;13.462;2023-07-31T11:30:42;21.80;99.90
8463;DHT22;4268;52.506;13.462;2023-07-31T11:33:10;21.80;99.90
8463;DHT22;4268;52.506;13.462;2023-07-31T11:35:41;21.90;99.90
8463;DHT22;4268;52.506;13.462;2023-07-31T11:38:32;22.00;99.90
8463;DHT22;4268;52.506;13.462;2023-07-31T11:40:58;22.10;99.90
8463;DHT22;4268;52.506;13.462;2023-07-31T11:43:24;22.00;99.90
8463;DHT22;4268;52.506;13.462;2023-07-31T11:45:53;22.00;99.90
8463;DHT22;4268;52.506;13.462;2023-07-31T11:48:27;21.90;99.90
8463;DHT22;4268;52.506;13.462;2023-07-31T11:50:56;21.90;99.90
8463;DHT22;4268;52.506;13.462;2023-07-31T11:56:01;22.00;99.90
8463;DHT22;4268;52.506;13.462;2023-07-31T11:58:33;22.00;99.90
8463;DHT22;4268;52.506;13.462;2023-07-31T12:00:59;22.00;99.90
8463;DHT22;4268;52.506;13.462;2023-07-31T12:03:26;21.80;99.90
8463;DHT22;4268;52.506;13.462;2023-07-31T12:05:53;21.80;99.90
8463;DHT22;4268;52.506;13.462;2023-07-31T12:08:22;21.70;99.90
8463;DHT22;4268;52.506;13.462;2023-07-31T12:10:51;21.50;99.90
8463;DHT22;4268;52.506;13.462;2023-07-31T12:13:25;21.40;99.90
8463;DHT22;4268;52.506;13.462;2023-07-31T12:15:56;21.30;99.90
8463;DHT22;4268;52.506;13.462;2023-07-31T12:18:23;21.90;99.90
8463;DHT22;4268;52.506;13.462;2023-07-31T12:20:55;21.70;99.90
8463;DHT22;4268;52.506;13.462;2023-07-31T12:23:23;21.90;99.90
8463;DHT22;4268;52.506;13.462;2023-07-31T12:28:47;22.20;99.90
8463;DHT22;4268;52.506;13.462;2023-07-31T12:31:18;22.40;99.90
8463;DHT22;4268;52.506;13.462;2023-07-31T12:33:45;22.40;99.90
8463;DHT22;4268;52.506;13.462;2023-07-31T12:36:13;22.30;99.90
8463;DHT22;4268;52.506;13.462;2023-07-31T12:38:39;22.40;99.90
8463;DHT22;4268;52.506;13.462;2023-07-31T12:41:04;22.60;99.90
8463;DHT22;4268;52.506;13.462;2023-07-31T12:43:32;22.90;99.90
8463;DHT22;4268;52.506;13.462;2023-07-31T12:45:58;23.00;99.90
8463;DHT22;4268;52.506;13.462;2023-07-31T12:48:24;23.10;99.90
8463;DHT22;4268;52.506;13.462;2023-07-31T12:50:50;23.20;99.90
8463;DHT22;4268;52.506;13.462;2023-07-31T12:53:15;23.20;99.90
8463;DHT22;4268;52.506;13.462;2023-07-31T12:55:41;23.00;99.90
8463;DHT22;4268;52.506;13.462;2023-07-31T12:58:07;23.10;99.90
8463;DHT22;4268;52.506;13.462;2023-07-31T13:00:32;23.00;99.90
8463;DHT22;4268;52.506;13.462;2023-07-31T13:02:58;23.00;99.90
8463;DHT22;4268;52.506;13.462;2023-07-31T13:05:24;23.30;99.90
8463;DHT22;4268;52.506;13.462;2023-07-31T13:07:50;22.60;99.90
8463;DHT22;4268;52.506;13.462;2023-07-31T13:10:15;22.70;99.90
8463;DHT22;4268;52.506;13.462;2023-07-31T13:12:41;22.50;99.90
8463;DHT22;4268;52.506;13.462;2023-07-31T13:15:07;22.40;99.90
8463;DHT22;4268;52.506;13.462;2023-07-31T13:17:33;22.20;99.90
8463;DHT22;4268;52.506;13.462;2023-07-31T13:19:59;22.20;99.90
8463;DHT22;4268;52.506;13.462;2023-07-31T13:22:26;22.20;99.90
8463;DHT22;4268;52.506;13.462;2023-07-31T13:24:51;22.30;99.90
8463;DHT22;4268;52.506;13.462;2023-07-31T13:27:17;22.30;99.90
8463;DHT22;4268;52.506;13.462;2023-07-31T13:29:45;22.20;99.90
8463;DHT22;4268;52.506;13.462;2023-07-31T13:32:11;22.10;99.90
8463;DHT22;4268;52.506;13.462;2023-07-31T13:34:36;22.00;99.90
8463;DHT22;4268;52.506;13.462;2023-07-31T13:37:02;22.10;99.90
8463;DHT22;4268;52.506;13.462;2023-07-31T13:39:28;23.10;99.90
8463;DHT22;4268;52.506;13.462;2023-07-31T13:41:53;22.30;99.90
8463;DHT22;4268;52.506;13.462;2023-07-31T13:44:19;22.60;99.90
8463;DHT22;4268;52.506;13.462;2023-07-31T13:46:45;23.60;99.90
8463;DHT22;4268;52.506;13.462;2023-07-31T13:49:10;23.00;99.90
8463;DHT22;4268;52.506;13.462;2023-07-31T13:51:36;23.20;99.90
8463;DHT22;4268;52.506;13.462;2023-07-31T13:54:03;23.20;99.90
8463;DHT22;4268;52.506;13.462;2023-07-31T13:56:28;23.30;99.90
8463;DHT22;4268;52.506;13.462;2023-07-31T13:58:54;23.30;99.90
8463;DHT22;4268;52.506;13.462;2023-07-31T14:01:19;23.30;99.90
8463;DHT22;4268;52.506;13.462;2023-07-31T14:03:45;23.20;99.90
8463;DHT22;4268;52.506;13.462;2023-07-31T14:06:10;23.40;99.90
8463;DHT22;4268;52.506;13.462;2023-07-31T14:08:36;23.00;99.90
8463;DHT22;4268;52.506;13.462;2023-07-31T14:11:02;23.00;99.90
8463;DHT22;4268;52.506;13.462;2023-07-31T14:13:27;23.00;99.90
8463;DHT22;4268;52.506;13.462;2023-07-31T14:15:53;23.00;99.90
8463;DHT22;4268;52.506;13.462;2023-07-31T14:18:18;23.00;99.90
8463;DHT22;4268;52.506;13.462;2023-07-31T14:20:44;23.00;99.90
8463;DHT22;4268;52.506;13.462;2023-07-31T14:23:10;22.70;99.90
8463;DHT22;4268;52.506;13.462;2023-07-31T14:25:35;23.00;99.90
8463;DHT22;4268;52.506;13.462;2023-07-31T14:28:01;22.80;99.90
8463;DHT22;4268;52.506;13.462;2023-07-31T14:30:26;22.70;99.90
8463;DHT22;4268;52.506;13.462;2023-07-31T14:32:52;22.60;99.90
8463;DHT22;4268;52.506;13.462;2023-07-31T14:35:18;22.40;99.90
8463;DHT22;4268;52.506;13.462;2023-07-31T14:37:44;22.50;99.90
8463;DHT22;4268;52.506;13.462;2023-07-31T14:40:12;22.50;99.90
8463;DHT22;4268;52.506;13.462;2023-07-31T14:42:38;22.60;99.90
8463;DHT22;4268;52.506;13.462;2023-07-31T14:45:05;22.70;99.90
8463;DHT22;4268;52.506;13.462;2023-07-31T14:47:31;22.80;99.90
8463;DHT22;4268;52.506;13.462;2023-07-31T14:49:58;22.70;99.90
8463;DHT22;4268;52.506;13.462;2023-07-31T14:52:24;22.70;99.90
8463;DHT22;4268;52.506;13.462;2023-07-31T14:54:49;22.60;99.90
8463;DHT22;4268;52.506;13.462;2023-07-31T14:57:15;22.70;99.90
8463;DHT22;4268;52.506;13.462;2023-07-31T14:59:41;22.60;99.90
8463;DHT22;4268;52.506;13.462;2023-07-31T15:02:08;22.50;99.90
8463;DHT22;4268;52.506;13.462;2023-07-31T15:04:34;22.50;99.90
8463;DHT22;4268;52.506;13.462;2023-07-31T15:06:59;22.40;99.90
8463;DHT22;4268;52.506;13.462;2023-07-31T15:09:25;22.30;99.90
8463;DHT22;4268;52.506;13.462;2023-07-31T15:11:51;22.20;99.90
8463;DHT22;4268;52.506;13.462;2023-07-31T15:14:16;22.10;99.90
8463;DHT22;4268;52.506;13.462;2023-07-31T15:16:42;23.00;99.90
8463;DHT22;4268;52.506;13.462;2023-07-31T15:19:08;21.90;99.90
8463;DHT22;4268;52.506;13.462;2023-07-31T15:21:36;22.10;99.90
8463;DHT22;4268;52.506;13.462;2023-07-31T15:24:02;21.80;99.90
8463;DHT22;4268;52.506;13.462;2023-07-31T15:26:27;21.80;99.90
8463;DHT22;4268;52.506;13.462;2023-07-31T15:29:06;21.70;99.90
8463;DHT22;4268;52.506;13.462;2023-07-31T15:31:38;21.90;99.90
8463;DHT22;4268;52.506;13.462;2023-07-31T15:34:04;22.00;99.90
8463;DHT22;4268;52.506;13.462;2023-07-31T15:36:30;22.10;99.90
8463;DHT22;4268;52.506;13.462;2023-07-31T15:38:55;22.10;99.90
8463;DHT22;4268;52.506;13.462;2023-07-31T15:41:21;22.20;99.90
8463;DHT22;4268;52.506;13.462;2023-07-31T15:43:46;22.00;99.90
8463;DHT22;4268;52.506;13.462;2023-07-31T15:46:13;22.00;99.90
8463;DHT22;4268;52.506;13.462;2023-07-31T15:48:38;22.00;99.90
8463;DHT22;4268;52.506;13.462;2023-07-31T15:51:04;22.10;99.90
8463;DHT22;4268;52.506;13.462;2023-07-31T15:53:30;22.10;99.90
8463;DHT22;4268;52.506;13.462;2023-07-31T15:55:56;22.30;99.90